createdAt,value
2019-05-21T00:02:09.714Z,98166.00
2019-05-21T00:04:40.257Z,98165.00
2019-05-21T00:07:10.808Z,98164.00
2019-05-21T00:09:41.389Z,98157.00
2019-05-21T00:12:11.898Z,98158.00
2019-05-21T00:14:43.678Z,98155.00
2019-05-21T00:17:14.221Z,98159.00
2019-05-21T00:19:44.823Z,98158.00
2019-05-21T00:22:15.448Z,98158.00
2019-05-21T00:24:46.060Z,98161.00
2019-05-21T00:27:16.541Z,98164.00
2019-05-21T00:30:41.928Z,98157.00
2019-05-21T00:34:06.224Z,98169.00
2019-05-21T00:37:30.891Z,98173.00
2019-05-21T00:41:14.184Z,98176.00
2019-05-21T00:43:57.156Z,98173.00
2019-05-21T00:46:27.745Z,98183.00
2019-05-21T00:48:58.487Z,98185.00
2019-05-21T00:51:28.989Z,98187.00
2019-05-21T00:53:59.660Z,98192.00
2019-05-21T00:56:30.391Z,98198.00
2019-05-21T00:59:00.948Z,98210.00
2019-05-21T01:01:33.713Z,98203.00
2019-05-21T01:04:04.371Z,98207.00
2019-05-21T01:06:36.366Z,98207.00
2019-05-21T01:09:07.981Z,98210.00
2019-05-21T01:11:39.645Z,98195.00
2019-05-21T01:14:11.516Z,98199.00
2019-05-21T01:16:42.088Z,98207.00
2019-05-21T01:19:14.447Z,98200.00
2019-05-21T01:21:45.022Z,98196.00
2019-05-21T01:24:15.619Z,98201.00
2019-05-21T01:26:46.216Z,98209.00
2019-05-21T01:29:16.731Z,98215.00
2019-05-21T01:31:47.305Z,98211.00
2019-05-21T01:34:17.931Z,98206.00
2019-05-21T01:36:48.505Z,98212.00
2019-05-21T01:39:19.032Z,98214.00
2019-05-21T01:41:50.769Z,98219.00
2019-05-21T01:44:21.513Z,98224.00
2019-05-21T01:46:55.740Z,98225.00
2019-05-21T01:49:26.269Z,98224.00
2019-05-21T01:51:58.794Z,98229.00
2019-05-21T01:54:29.468Z,98233.00
2019-05-21T01:57:00.121Z,98226.00
2019-05-21T01:59:31.642Z,98219.00
2019-05-21T02:02:02.252Z,98221.00
2019-05-21T02:04:32.806Z,98222.00
2019-05-21T02:07:03.458Z,98223.00
2019-05-21T02:09:35.871Z,98214.00
2019-05-21T02:12:06.439Z,98217.00
2019-05-21T02:14:36.934Z,98213.00
2019-05-21T02:17:07.472Z,98211.00
2019-05-21T02:19:38.036Z,98198.00
2019-05-21T02:22:08.606Z,98204.00
2019-05-21T02:24:39.126Z,98199.00
2019-05-21T02:27:09.705Z,98205.00
2019-05-21T02:29:40.231Z,98215.00
2019-05-21T02:32:10.803Z,98205.00
2019-05-21T02:34:41.382Z,98204.00
2019-05-21T02:37:11.993Z,98211.00
2019-05-21T02:39:42.644Z,98211.00
2019-05-21T02:42:13.238Z,98216.00
2019-05-21T02:44:44.077Z,98217.00
2019-05-21T02:47:14.670Z,98214.00
2019-05-21T02:49:45.197Z,98218.00
2019-05-21T02:52:15.799Z,98216.00
2019-05-21T02:54:47.482Z,98216.00
2019-05-21T02:57:18.078Z,98213.00
2019-05-21T02:59:50.475Z,98225.00
2019-05-21T03:02:28.510Z,98215.00
2019-05-21T03:04:59.121Z,98221.00
2019-05-21T03:07:30.896Z,98207.00
2019-05-21T03:10:01.473Z,98207.00
2019-05-21T03:12:32.009Z,98211.00
2019-05-21T03:15:02.569Z,98217.00
2019-05-21T03:17:34.360Z,98215.00
2019-05-21T03:20:05.177Z,98214.00
2019-05-21T03:22:35.827Z,98218.00
2019-05-21T03:25:08.765Z,98221.00
2019-05-21T03:27:39.393Z,98217.00
2019-05-21T03:30:10.721Z,98222.00
2019-05-21T03:32:42.754Z,98221.00
2019-05-21T03:35:13.818Z,98225.00
2019-05-21T03:37:44.425Z,98221.00
2019-05-21T03:40:15.203Z,98224.00
2019-05-21T03:42:45.769Z,98229.00
2019-05-21T03:45:17.177Z,98231.00
2019-05-21T03:47:47.727Z,98232.00
2019-05-21T03:50:37.360Z,98229.00
2019-05-21T03:53:09.789Z,98234.00
2019-05-21T03:55:40.284Z,98232.00
2019-05-21T03:58:10.858Z,98234.00
2019-05-21T04:00:41.404Z,98236.00
2019-05-21T04:03:11.978Z,98232.00
2019-05-21T04:05:42.539Z,98226.00
2019-05-21T04:08:13.099Z,98232.00
2019-05-21T04:10:43.602Z,98231.00
2019-05-21T04:13:14.156Z,98234.00
2019-05-21T04:16:02.552Z,98233.00
2019-05-21T04:18:41.618Z,98246.00
2019-05-21T04:21:12.320Z,98253.00
2019-05-21T04:23:42.924Z,98255.00
2019-05-21T04:26:13.436Z,98248.00
2019-05-21T04:28:44.053Z,98261.00
2019-05-21T04:31:14.722Z,98260.00
2019-05-21T04:33:45.412Z,98265.00
2019-05-21T04:36:15.949Z,98275.00
2019-05-21T04:38:46.522Z,98271.00
2019-05-21T04:41:17.047Z,98271.00
2019-05-21T04:43:47.608Z,98275.00
2019-05-21T04:46:19.613Z,98274.00
2019-05-21T04:48:50.213Z,98282.00
2019-05-21T04:51:20.842Z,98290.00
2019-05-21T04:53:52.603Z,98294.00
2019-05-21T04:56:23.122Z,98295.00
2019-05-21T04:58:53.685Z,98301.00
2019-05-21T05:01:24.311Z,98303.00
2019-05-21T05:03:55.868Z,98302.00
2019-05-21T05:06:26.405Z,98292.00
2019-05-21T05:08:57.001Z,98300.00
2019-05-21T05:11:27.535Z,98309.00
2019-05-21T05:13:58.141Z,98313.00
2019-05-21T05:16:28.732Z,98305.00
2019-05-21T05:18:59.234Z,98306.00
2019-05-21T05:21:29.879Z,98307.00
2019-05-21T05:24:00.443Z,98306.00
2019-05-21T05:26:30.970Z,98307.00
2019-05-21T05:29:01.558Z,98300.00
2019-05-21T05:31:32.099Z,98304.00
2019-05-21T05:34:03.819Z,98305.00
2019-05-21T05:36:34.368Z,98304.00
2019-05-21T05:39:06.526Z,98310.00
2019-05-21T05:41:37.162Z,98308.00
2019-05-21T05:44:07.752Z,98312.00
2019-05-21T05:46:38.292Z,98312.00
2019-05-21T05:49:21.363Z,98315.00
2019-05-21T05:51:52.006Z,98319.00
2019-05-21T05:54:23.710Z,98312.00
2019-05-21T05:56:54.235Z,98320.00
2019-05-21T05:59:43.879Z,98316.00
2019-05-21T06:02:14.442Z,98325.00
2019-05-21T06:04:46.107Z,98321.00
2019-05-21T06:07:16.650Z,98306.00
2019-05-21T06:09:47.217Z,98320.00
2019-05-21T06:12:38.175Z,98321.00
2019-05-21T06:15:09.331Z,98321.00
2019-05-21T06:17:39.842Z,98321.00
2019-05-21T06:20:12.512Z,98318.00
2019-05-21T06:22:44.300Z,98323.00
2019-05-21T06:25:15.381Z,98326.00
2019-05-21T06:27:47.043Z,98316.00
2019-05-21T06:30:18.624Z,98319.00
2019-05-21T06:32:49.290Z,98329.00
2019-05-21T06:35:19.956Z,98333.00
2019-05-21T06:37:50.493Z,98329.00
2019-05-21T06:40:22.191Z,98336.00
2019-05-21T06:42:52.763Z,98334.00
2019-05-21T06:45:25.026Z,98339.00
2019-05-21T06:47:55.765Z,98340.00
2019-05-21T06:50:26.316Z,98340.00
2019-05-21T06:52:58.315Z,98346.00
2019-05-21T06:55:28.879Z,98356.00
2019-05-21T06:57:59.442Z,98356.00
2019-05-21T07:00:30.030Z,98366.00
2019-05-21T07:03:00.599Z,98365.00
2019-05-21T07:05:31.160Z,98358.00
2019-05-21T07:08:01.749Z,98367.00
2019-05-21T07:10:32.351Z,98368.00
2019-05-21T07:13:03.958Z,98381.00
2019-05-21T07:15:34.552Z,98385.00
2019-05-21T07:18:05.087Z,98387.00
2019-05-21T07:20:37.515Z,98386.00
2019-05-21T07:23:08.057Z,98391.00
2019-05-21T07:25:38.595Z,98396.00
2019-05-21T07:28:09.121Z,98401.00
2019-05-21T07:30:39.793Z,98404.00
2019-05-21T07:33:10.507Z,98410.00
2019-05-21T07:35:41.112Z,98423.00
2019-05-21T07:38:11.725Z,98421.00
2019-05-21T07:40:42.521Z,98422.00
2019-05-21T07:43:13.027Z,98426.00
2019-05-21T07:45:44.878Z,98426.00
2019-05-21T07:48:15.400Z,98429.00
2019-05-21T07:50:46.101Z,98427.00
2019-05-21T07:53:16.645Z,98432.00
2019-05-21T07:55:47.159Z,98437.00
2019-05-21T07:58:17.885Z,98442.00
2019-05-21T08:00:48.460Z,98445.00
2019-05-21T08:03:20.111Z,98442.00
2019-05-21T08:05:50.655Z,98450.00
2019-05-21T08:08:21.191Z,98452.00
2019-05-21T08:10:51.884Z,98451.00
2019-05-21T08:13:23.640Z,98452.00
2019-05-21T08:15:54.213Z,98456.00
2019-05-21T08:18:24.789Z,98455.00
2019-05-21T08:20:56.215Z,98459.00
2019-05-21T08:23:26.750Z,98462.00
2019-05-21T08:25:57.305Z,98459.00
2019-05-21T08:28:27.833Z,98465.00
2019-05-21T08:31:02.093Z,98464.00
2019-05-21T08:33:30.782Z,98466.00
2019-05-21T08:36:01.503Z,98461.00
2019-05-21T08:38:31.971Z,98469.00
2019-05-21T08:41:02.660Z,98472.00
2019-05-21T08:43:33.158Z,98469.00
2019-05-21T08:46:04.235Z,98469.00
2019-05-21T08:48:34.755Z,98468.00
2019-05-21T08:51:05.533Z,98469.00
2019-05-21T08:53:36.063Z,98471.00
2019-05-21T08:56:06.615Z,98472.00
2019-05-21T08:58:37.230Z,98474.00
2019-05-21T09:01:07.804Z,98474.00
2019-05-21T09:03:38.329Z,98472.00
2019-05-21T09:06:09.043Z,98465.00
2019-05-21T09:08:39.621Z,98462.00
2019-05-21T09:11:10.159Z,98461.00
2019-05-21T09:13:40.763Z,98466.00
2019-05-21T09:16:13.187Z,98464.00
2019-05-21T09:18:43.857Z,98467.00
2019-05-21T09:21:14.495Z,98468.00
2019-05-21T09:23:45.095Z,98475.00
2019-05-21T09:26:15.696Z,98471.00
2019-05-21T09:28:47.422Z,98483.00
2019-05-21T09:31:18.022Z,98484.00
2019-05-21T09:33:49.788Z,98483.00
2019-05-21T09:36:20.368Z,98487.00
2019-05-21T09:38:51.002Z,98484.00
2019-05-21T09:41:22.699Z,98481.00
2019-05-21T09:43:53.284Z,98495.00
2019-05-21T09:46:23.890Z,98493.00
2019-05-21T09:48:56.174Z,98484.00
2019-05-21T09:51:26.853Z,98496.00
2019-05-21T09:53:57.465Z,98505.00
2019-05-21T09:56:34.313Z,98497.00
2019-05-21T09:59:23.606Z,98497.00
2019-05-21T10:01:57.072Z,98502.00
2019-05-21T10:04:27.587Z,98503.00
2019-05-21T10:06:58.127Z,98504.00
2019-05-21T10:09:28.768Z,98503.00
2019-05-21T10:11:59.344Z,98504.00
2019-05-21T10:14:33.886Z,98508.00
2019-05-21T10:17:02.205Z,98502.00
2019-05-21T10:19:32.753Z,98506.00
2019-05-21T10:22:03.649Z,98508.00
2019-05-21T10:24:34.290Z,98509.00
2019-05-21T10:27:04.952Z,98516.00
2019-05-21T10:29:35.488Z,98518.00
2019-05-21T10:32:06.276Z,98522.00
2019-05-21T10:34:36.843Z,98526.00
2019-05-21T10:37:07.442Z,98524.00
2019-05-21T10:39:38.138Z,98529.00
2019-05-21T10:42:08.686Z,98538.00
2019-05-21T10:44:39.225Z,98537.00
2019-05-21T10:47:09.775Z,98541.00
2019-05-21T10:49:40.377Z,98543.00
2019-05-21T10:52:11.030Z,98542.00
2019-05-21T10:54:41.550Z,98542.00
2019-05-21T10:57:12.107Z,98545.00
2019-05-21T10:59:42.696Z,98555.00
2019-05-21T11:02:23.081Z,98554.00
2019-05-21T11:05:12.545Z,98542.00
2019-05-21T11:07:43.129Z,98543.00
2019-05-21T11:10:15.468Z,98534.00
2019-05-21T11:12:46.078Z,98540.00
2019-05-21T11:15:19.037Z,98539.00
2019-05-21T11:18:07.360Z,98536.00
2019-05-21T11:20:23.609Z,98550.00
2019-05-21T11:22:58.203Z,98550.00
2019-05-21T11:25:27.697Z,98553.00
2019-05-21T11:27:59.383Z,98547.00
2019-05-21T11:30:29.961Z,98564.00
2019-05-21T11:33:00.607Z,98559.00
2019-05-21T11:35:31.203Z,98557.00
2019-05-21T11:38:02.335Z,98563.00
2019-05-21T11:40:33.032Z,98561.00
2019-05-21T11:43:03.713Z,98562.00
2019-05-21T11:45:34.357Z,98565.00
2019-05-21T11:48:05.164Z,98566.00
2019-05-21T11:50:35.726Z,98565.00
2019-05-21T11:53:06.441Z,98565.00
2019-05-21T11:55:38.276Z,98568.00
2019-05-21T11:58:08.901Z,98568.00
2019-05-21T12:00:39.842Z,98575.00
2019-05-21T12:03:12.313Z,98570.00
2019-05-21T12:05:43.188Z,98571.00
2019-05-21T12:08:13.959Z,98568.00
2019-05-21T12:10:44.609Z,98571.00
2019-05-21T12:13:20.222Z,98576.00
2019-05-21T12:15:50.290Z,98580.00
2019-05-21T12:18:21.029Z,98572.00
2019-05-21T12:20:51.869Z,98573.00
2019-05-21T12:23:22.624Z,98573.00
2019-05-21T12:25:53.267Z,98583.00
2019-05-21T12:28:23.964Z,98578.00
2019-05-21T12:30:54.546Z,98578.00
2019-05-21T12:33:25.090Z,98577.00
2019-05-21T12:35:55.756Z,98573.00
2019-05-21T12:38:26.412Z,98578.00
2019-05-21T12:40:56.957Z,98576.00
2019-05-21T12:43:27.482Z,98583.00
2019-05-21T12:45:58.094Z,98582.00
2019-05-21T12:48:28.627Z,98586.00
2019-05-21T12:50:59.165Z,98581.00
2019-05-21T12:53:29.772Z,98586.00
2019-05-21T12:56:00.364Z,98585.00
2019-05-21T12:58:31.042Z,98584.00
2019-05-21T13:01:01.868Z,98583.00
2019-05-21T13:03:32.419Z,98579.00
2019-05-21T13:06:03.187Z,98586.00
2019-05-21T13:08:33.703Z,98574.00
2019-05-21T13:11:04.282Z,98577.00
2019-05-21T13:13:35.031Z,98585.00
2019-05-21T13:16:05.590Z,98580.00
2019-05-21T13:18:36.310Z,98580.00
2019-05-21T13:21:08.584Z,98584.00
2019-05-21T13:23:39.299Z,98574.00
2019-05-21T13:26:10.145Z,98579.00
2019-05-21T13:28:41.017Z,98581.00
2019-05-21T13:31:11.663Z,98585.00
2019-05-21T13:33:43.497Z,98583.00
2019-05-21T13:36:14.289Z,98584.00
2019-05-21T13:38:46.752Z,98583.00
2019-05-21T13:41:17.718Z,98591.00
2019-05-21T13:43:48.263Z,98599.00
2019-05-21T13:46:18.920Z,98601.00
2019-05-21T13:48:49.509Z,98598.00
2019-05-21T13:51:20.113Z,98606.00
2019-05-21T13:53:50.613Z,98597.00
2019-05-21T13:56:21.373Z,98599.00
2019-05-21T13:58:52.009Z,98601.00
2019-05-21T14:01:39.190Z,98600.00
2019-05-21T14:03:55.328Z,98599.00
2019-05-21T14:06:26.097Z,98600.00
2019-05-21T14:08:56.649Z,98606.00
2019-05-21T14:11:27.638Z,98603.00
2019-05-21T14:13:58.310Z,98606.00
2019-05-21T14:16:28.912Z,98596.00
2019-05-21T14:18:59.501Z,98603.00
2019-05-21T14:21:30.082Z,98608.00
2019-05-21T14:24:00.694Z,98614.00
2019-05-21T14:26:31.375Z,98608.00
2019-05-21T14:29:01.910Z,98611.00
2019-05-21T14:31:32.500Z,98609.00
2019-05-21T14:34:03.314Z,98613.00
2019-05-21T14:36:33.885Z,98610.00
2019-05-21T14:39:07.200Z,98616.00
2019-05-21T14:41:37.792Z,98621.00
2019-05-21T14:44:08.504Z,98611.00
2019-05-21T14:46:39.212Z,98611.00
2019-05-21T14:49:09.744Z,98612.00
2019-05-21T14:51:40.302Z,98605.00
2019-05-21T14:54:25.558Z,98603.00
2019-05-21T14:56:47.306Z,98611.00
2019-05-21T14:59:16.768Z,98608.00
2019-05-21T15:01:47.400Z,98609.00
2019-05-21T15:04:18.389Z,98611.00
2019-05-21T15:06:49.110Z,98609.00
2019-05-21T15:09:20.198Z,98610.00
2019-05-21T15:11:51.786Z,98612.00
2019-05-21T15:14:22.456Z,98610.00
2019-05-21T15:16:53.231Z,98608.00
2019-05-21T15:19:23.808Z,98611.00
2019-05-21T15:21:55.651Z,98619.00
2019-05-21T15:24:27.354Z,98609.00
2019-05-21T15:26:57.900Z,98611.00
2019-05-21T15:29:28.575Z,98607.00
2019-05-21T15:31:59.111Z,98606.00
2019-05-21T15:34:29.882Z,98611.00
2019-05-21T15:37:00.418Z,98605.00
2019-05-21T15:39:31.006Z,98608.00
2019-05-21T15:42:02.804Z,98601.00
2019-05-21T15:44:33.366Z,98605.00
2019-05-21T15:47:04.009Z,98610.00
2019-05-21T15:49:36.927Z,98618.00
2019-05-21T15:52:06.942Z,98621.00
2019-05-21T15:54:37.561Z,98621.00
2019-05-21T15:57:10.403Z,98627.00
2019-05-21T15:59:42.287Z,98624.00
2019-05-21T16:02:12.829Z,98630.00
2019-05-21T16:04:43.419Z,98625.00
2019-05-21T16:07:15.035Z,98635.00
2019-05-21T16:09:45.605Z,98633.00
2019-05-21T16:12:16.123Z,98644.00
2019-05-21T16:14:46.715Z,98634.00
2019-05-21T16:17:17.306Z,98635.00
2019-05-21T16:19:47.866Z,98637.00
2019-05-21T16:22:18.678Z,98645.00
2019-05-21T16:24:50.334Z,98636.00
2019-05-21T16:27:20.909Z,98638.00
2019-05-21T16:29:51.541Z,98640.00
2019-05-21T16:32:23.244Z,98642.00
2019-05-21T16:35:12.993Z,98640.00
2019-05-21T16:37:43.622Z,98642.00
2019-05-21T16:40:15.108Z,98635.00
2019-05-21T16:42:45.760Z,98636.00
2019-05-21T16:45:17.028Z,98639.00
2019-05-21T16:47:49.501Z,98638.00
2019-05-21T16:50:20.055Z,98650.00
2019-05-21T16:52:50.595Z,98645.00
2019-05-21T16:55:21.192Z,98652.00
2019-05-21T16:57:55.971Z,98645.00
2019-05-21T17:00:26.727Z,98645.00
2019-05-21T17:02:58.332Z,98651.00
2019-05-21T17:05:28.989Z,98655.00
2019-05-21T17:08:00.557Z,98649.00
2019-05-21T17:10:32.605Z,98653.00
2019-05-21T17:13:04.281Z,98650.00
2019-05-21T17:15:34.912Z,98656.00
2019-05-21T17:18:05.520Z,98651.00
2019-05-21T17:20:37.227Z,98661.00
2019-05-21T17:23:07.879Z,98660.00
2019-05-21T17:25:38.656Z,98660.00
2019-05-21T17:28:10.700Z,98659.00
2019-05-21T17:30:44.103Z,98658.00
2019-05-21T17:33:15.167Z,98667.00
2019-05-21T17:35:45.749Z,98671.00
2019-05-21T17:38:16.401Z,98679.00
2019-05-21T17:40:47.097Z,98672.00
2019-05-21T17:43:17.837Z,98672.00
2019-05-21T17:45:48.426Z,98672.00
2019-05-21T17:48:18.974Z,98684.00
2019-05-21T17:50:49.683Z,98675.00
2019-05-21T17:53:20.356Z,98677.00
2019-05-21T17:55:51.035Z,98684.00
2019-05-21T17:58:21.648Z,98691.00
2019-05-21T18:00:56.835Z,98698.00
2019-05-21T18:03:27.606Z,98690.00
2019-05-21T18:05:58.867Z,98702.00
2019-05-21T18:08:29.854Z,98700.00
2019-05-21T18:11:01.104Z,98700.00
2019-05-21T18:13:32.426Z,98707.00
2019-05-21T18:16:03.690Z,98712.00
2019-05-21T18:18:34.730Z,98706.00
2019-05-21T18:21:07.352Z,98710.00
2019-05-21T18:23:38.134Z,98725.00
2019-05-21T18:26:08.936Z,98726.00
2019-05-21T18:28:39.470Z,98730.00
2019-05-21T18:31:10.077Z,98741.00
2019-05-21T18:33:40.800Z,98745.00
2019-05-21T18:36:30.388Z,98755.00
2019-05-21T18:39:02.485Z,98757.00
2019-05-21T18:41:34.523Z,98764.00
2019-05-21T18:44:05.137Z,98773.00
2019-05-21T18:46:36.837Z,98772.00
2019-05-21T18:49:07.525Z,98777.00
2019-05-21T18:51:41.353Z,98778.00
2019-05-21T18:54:11.972Z,98784.00
2019-05-21T18:56:42.966Z,98786.00
2019-05-21T18:59:13.500Z,98796.00
2019-05-21T19:01:44.201Z,98796.00
2019-05-21T19:04:16.213Z,98804.00
2019-05-21T19:06:47.032Z,98808.00
2019-05-21T19:09:17.768Z,98819.00
2019-05-21T19:11:48.346Z,98827.00
2019-05-21T19:14:20.535Z,98826.00
2019-05-21T19:16:51.159Z,98826.00
2019-05-21T19:19:21.753Z,98832.00
2019-05-21T19:21:52.308Z,98853.00
2019-05-21T19:24:22.912Z,98854.00
2019-05-21T19:26:53.700Z,98857.00
2019-05-21T19:29:24.251Z,98878.00
2019-05-21T19:31:54.920Z,98874.00
2019-05-21T19:34:25.639Z,98882.00
2019-05-21T19:36:56.491Z,98877.00
2019-05-21T19:39:28.567Z,98886.00
2019-05-21T19:41:59.165Z,98883.00
2019-05-21T19:44:29.896Z,98888.00
2019-05-21T19:47:00.588Z,98902.00
2019-05-21T19:49:32.232Z,98897.00
2019-05-21T19:52:02.809Z,98905.00
2019-05-21T19:54:33.384Z,98915.00
2019-05-21T19:57:04.072Z,98907.00
2019-05-21T19:59:34.616Z,98917.00
2019-05-21T20:02:06.599Z,98911.00
2019-05-21T20:04:37.416Z,98919.00
2019-05-21T20:07:10.569Z,98924.00
2019-05-21T20:09:42.511Z,98920.00
2019-05-21T20:12:13.471Z,98921.00
2019-05-21T20:14:45.649Z,98917.00
2019-05-21T20:17:17.913Z,98919.00
2019-05-21T20:19:50.052Z,98922.00
2019-05-21T20:22:20.792Z,98921.00
2019-05-21T20:24:52.414Z,98927.00
2019-05-21T20:27:24.253Z,98922.00
2019-05-21T20:30:10.182Z,98923.00
2019-05-21T20:32:30.476Z,98930.00
2019-05-21T20:35:01.234Z,98935.00
2019-05-21T20:37:34.475Z,98929.00
2019-05-21T20:40:09.066Z,98933.00
2019-05-21T20:42:40.719Z,98934.00
2019-05-21T20:45:15.468Z,98941.00
2019-05-21T20:47:47.148Z,98944.00
2019-05-21T20:50:18.982Z,98951.00
2019-05-21T20:52:50.256Z,98948.00
2019-05-21T20:55:21.165Z,98955.00
2019-05-21T20:57:52.390Z,98958.00
2019-05-21T21:00:30.504Z,98967.00
2019-05-21T21:03:01.951Z,98970.00
2019-05-21T21:05:33.006Z,98963.00
2019-05-21T21:08:03.602Z,98979.00
2019-05-21T21:10:34.159Z,98969.00
2019-05-21T21:13:06.352Z,98972.00
2019-05-21T21:15:37.385Z,98971.00
2019-05-21T21:18:09.016Z,98976.00
2019-05-21T21:20:39.799Z,98980.00
2019-05-21T21:23:10.691Z,98976.00
2019-05-21T21:25:41.439Z,98979.00
2019-05-21T21:28:12.265Z,98977.00
2019-05-21T21:30:42.796Z,98983.00
2019-05-21T21:33:13.645Z,98988.00
2019-05-21T21:35:44.447Z,98974.00
2019-05-21T21:38:21.050Z,98992.00
2019-05-21T21:40:51.877Z,98979.00
2019-05-21T21:43:22.678Z,98986.00
2019-05-21T21:45:55.039Z,98990.00
2019-05-21T21:48:26.095Z,98994.00
2019-05-21T21:50:57.620Z,98986.00
2019-05-21T21:53:28.245Z,98987.00
2019-05-21T21:55:58.782Z,98996.00
2019-05-21T21:58:29.452Z,98996.00
2019-05-21T22:01:46.070Z,98997.00
2019-05-21T22:04:21.686Z,98999.00
2019-05-21T22:06:52.937Z,99011.00
2019-05-21T22:09:31.177Z,99012.00
2019-05-21T22:12:05.451Z,99012.00
2019-05-21T22:14:50.479Z,99023.00
2019-05-21T22:17:13.397Z,99022.00
2019-05-21T22:19:44.267Z,99018.00
2019-05-21T22:22:15.395Z,99018.00
2019-05-21T22:24:46.773Z,99013.00
2019-05-21T22:27:17.509Z,99021.00
2019-05-21T22:29:48.273Z,99017.00
2019-05-21T22:32:18.838Z,99012.00
2019-05-21T22:34:49.384Z,99014.00
2019-05-21T22:37:23.593Z,99007.00
2019-05-21T22:39:54.767Z,99003.00
2019-05-21T22:42:25.751Z,99003.00
2019-05-21T22:45:07.247Z,99001.00
2019-05-21T22:47:28.663Z,99005.00
2019-05-21T22:49:59.245Z,99007.00
2019-05-21T22:52:29.852Z,99004.00
2019-05-21T22:55:00.624Z,99012.00
2019-05-21T22:57:31.124Z,99008.00
2019-05-21T23:00:01.844Z,99001.00
2019-05-21T23:02:35.167Z,99004.00
2019-05-21T23:05:06.453Z,99004.00
2019-05-21T23:07:37.086Z,99013.00
2019-05-21T23:10:10.196Z,99014.00
2019-05-21T23:12:41.028Z,99004.00
2019-05-21T23:15:24.374Z,99016.00
2019-05-21T23:17:46.454Z,99010.00
2019-05-21T23:20:18.884Z,99006.00
2019-05-21T23:22:51.683Z,99003.00
2019-05-21T23:25:22.346Z,99010.00
2019-05-21T23:27:53.275Z,99015.00
2019-05-21T23:30:23.869Z,99022.00
2019-05-21T23:32:55.623Z,99021.00
2019-05-21T23:35:26.527Z,99025.00
2019-05-21T23:37:57.738Z,99023.00
2019-05-21T23:40:28.832Z,99023.00
2019-05-21T23:42:59.615Z,99028.00
2019-05-21T23:45:30.587Z,99033.00
2019-05-21T23:48:01.312Z,99026.00
2019-05-21T23:50:31.900Z,99031.00
2019-05-21T23:53:02.969Z,99031.00
2019-05-21T23:55:35.170Z,99032.00
2019-05-21T23:58:06.314Z,99032.00
